Oviedo, Florida
Current Conditions -  °F | °C
As of 6:53 AM on Sunday 21 Dec 2014 (Local Time) from KSFB Reporting Station
Haze Haze  
Wind Chill: 61°   Ceiling: Unl
Heat Index: 61°   Visibility: 6mi
Dew Point: 60°   Wind: 5mph
Humidity: 97%   Direction: 110°ESE
Pressure: 30.08"   Gusts: NA
Location:  28.65°N, 81.2°W
Report Text: KSFB 211153Z 11004KT 6SM BR SCT070 SCT095 16/16 A3008 RMK AO2 SLP185 T01610156 10172 20161 50003
Loading
Personal Weather Stations






























Interactive Weather Map New forecast layout! Learn more

10-Day Weather Forecast

Advertisements
Track Severe Weather on mobile